Time;durP1;ratioP1;P1;durP2;ratioP2;P2;SDS_P1;SDS_P2;PMS_P1;PMS_P2;Temp;Humidity;BMP_temperature;BMP_pressure;BME280_temperature;BME280_humidity;BME280_pressure;Samples;Min_cycle;Max_cycle;Signal;HPM_P1;HPM_P2
2019/08/08 00:00:20;;;;;;;6.2;1.2;;;;;;;25.3;54.24609;948.5999;;;;
2019/08/08 00:02:44;;;;;;;4.3;1;;;;;;;25.31;54.22266;948.6248;;;;
2019/08/08 00:05:10;;;;;;;4;1.1;;;;;;;25.32;54.1875;948.6096;;;;
2019/08/08 00:07:35;;;;;;;4.1;0.9;;;;;;;25.33;54.1543;948.6644;;;;
2019/08/08 00:10:00;;;;;;;1.7;1;;;;;;;25.32;54.17676;948.5963;;;;
2019/08/08 00:12:25;;;;;;;1.2;1;;;;;;;25.31;54.22266;948.5677;;;;
2019/08/08 00:14:50;;;;;;;2.5;1;;;;;;;25.31;54.10352;948.6461;;;;
2019/08/08 00:17:15;;;;;;;2.5;0.9;;;;;;;25.31;54.19922;948.6743;;;;
2019/08/08 00:19:40;;;;;;;3.3;1;;;;;;;25.31;54.15039;948.6884;;;;
2019/08/08 00:22:06;;;;;;;3.4;1.1;;;;;;;25.3;54.20898;948.711;;;;
2019/08/08 00:24:31;;;;;;;3.9;0.8;;;;;;;25.3;54.15039;948.7435;;;;
2019/08/08 00:26:56;;;;;;;4;1.1;;;;;;;25.33;54.10645;948.7203;;;;
2019/08/08 00:29:21;;;;;;;3.7;1;;;;;;;25.33;54.05859;948.6873;;;;
2019/08/08 00:31:46;;;;;;;3.1;1.1;;;;;;;25.34;54.09473;948.716;;;;
2019/08/08 00:34:11;;;;;;;4.5;1.2;;;;;;;25.32;54.12793;948.6967;;;;
2019/08/08 00:36:36;;;;;;;2.9;1.1;;;;;;;25.33;54.03516;948.6721;;;;
2019/08/08 00:39:02;;;;;;;2.4;1.2;;;;;;;25.32;54.11719;948.6606;;;;
2019/08/08 00:41:27;;;;;;;2.8;0.9;;;;;;;25.31;54.06836;948.6857;;;;
2019/08/08 00:43:52;;;;;;;3.3;0.9;;;;;;;25.31;54.16309;948.7234;;;;
2019/08/08 00:46:17;;;;;;;4.5;1;;;;;;;25.31;54.13867;948.7626;;;;
2019/08/08 00:48:42;;;;;;;2.1;1;;;;;;;25.3;54.1748;948.688;;;;
2019/08/08 00:51:07;;;;;;;2.7;0.9;;;;;;;25.32;54.06934;948.7047;;;;
2019/08/08 00:53:32;;;;;;;2.7;0.9;;;;;;;25.3;54.12695;948.7445;;;;
2019/08/08 00:55:57;;;;;;;1.9;0.9;;;;;;;25.31;54.05566;948.7145;;;;
2019/08/08 00:58:22;;;;;;;4.4;1;;;;;;;25.32;54.00977;948.6981;;;;
2019/08/08 01:00:47;;;;;;;1.7;0.9;;;;;;;25.31;54.00781;948.7782;;;;
2019/08/08 01:03:12;;;;;;;1.7;0.8;;;;;;;25.31;54.00879;948.72;;;;
2019/08/08 01:05:38;;;;;;;1.5;0.8;;;;;;;25.3;54.01953;948.7255;;;;
2019/08/08 01:08:03;;;;;;;2.5;0.9;;;;;;;25.3;54.03027;948.8166;;;;
2019/08/08 01:10:28;;;;;;;1.6;1;;;;;;;25.3;54.03027;948.7888;;;;
2019/08/08 01:12:53;;;;;;;3;0.9;;;;;;;25.3;54.06641;948.81;;;;
2019/08/08 01:15:18;;;;;;;2.1;0.9;;;;;;;25.29;54.06445;948.8188;;;;
2019/08/08 01:17:43;;;;;;;1.1;0.9;;;;;;;25.27;54.11035;948.8173;;;;
2019/08/08 01:20:08;;;;;;;2.4;0.9;;;;;;;25.29;53.96973;948.8301;;;;
2019/08/08 01:22:33;;;;;;;2;0.9;;;;;;;25.28;53.98047;948.8624;;;;
2019/08/08 01:24:59;;;;;;;2.1;0.9;;;;;;;25.29;54.0166;948.8384;;;;
2019/08/08 01:27:24;;;;;;;1.6;0.9;;;;;;;25.28;53.95703;948.846;;;;
2019/08/08 01:29:49;;;;;;;1.8;0.8;;;;;;;25.29;53.96875;948.8792;;;;
2019/08/08 01:32:14;;;;;;;3.1;1;;;;;;;25.28;53.93359;948.8814;;;;
2019/08/08 01:37:04;;;;;;;2;0.9;;;;;;;25.28;53.83789;949.012;;;;
2019/08/08 01:39:29;;;;;;;2.3;0.8;;;;;;;25.28;53.81445;949.0089;;;;
2019/08/08 01:41:54;;;;;;;1.9;0.9;;;;;;;25.27;53.80176;949.06;;;;
2019/08/08 01:44:19;;;;;;;1.9;1;;;;;;;25.28;53.75488;949.0392;;;;
2019/08/08 01:46:44;;;;;;;1.6;0.8;;;;;;;25.26;53.73926;949.0427;;;;
2019/08/08 01:49:10;;;;;;;3;0.9;;;;;;;25.26;53.76465;949.1266;;;;
2019/08/08 01:51:35;;;;;;;1.6;1;;;;;;;25.26;53.76367;949.1188;;;;
2019/08/08 01:54:00;;;;;;;1.1;0.9;;;;;;;25.26;53.69336;949.145;;;;
2019/08/08 01:56:25;;;;;;;2.5;0.8;;;;;;;25.27;53.69434;949.1508;;;;
2019/08/08 01:58:50;;;;;;;1.7;1;;;;;;;25.25;53.72754;949.1599;;;;
2019/08/08 02:01:16;;;;;;;1.8;1;;;;;;;25.25;53.72754;949.1983;;;;
2019/08/08 02:03:41;;;;;;;1.1;0.9;;;;;;;25.25;53.68066;949.2079;;;;
2019/08/08 02:06:06;;;;;;;2.1;1;;;;;;;25.24;53.71387;949.2512;;;;
2019/08/08 02:08:31;;;;;;;2.1;0.8;;;;;;;25.24;53.70215;949.2447;;;;
2019/08/08 02:10:56;;;;;;;1.2;1;;;;;;;25.23;53.7373;949.2191;;;;
2019/08/08 02:13:21;;;;;;;1.2;0.8;;;;;;;25.23;53.72559;949.2272;;;;
2019/08/08 02:15:46;;;;;;;1.9;0.9;;;;;;;25.24;53.71387;949.236;;;;
2019/08/08 02:18:11;;;;;;;2.2;1;;;;;;;25.23;53.75977;949.2399;;;;
2019/08/08 02:20:36;;;;;;;2.4;1.2;;;;;;;25.23;53.68945;949.2329;;;;
2019/08/08 02:23:02;;;;;;;1.4;0.9;;;;;;;25.23;53.67676;949.2236;;;;
2019/08/08 02:25:27;;;;;;;1.9;1.1;;;;;;;25.23;53.66504;949.2611;;;;
2019/08/08 02:27:52;;;;;;;1.3;0.9;;;;;;;25.22;53.65332;949.2736;;;;
2019/08/08 02:30:17;;;;;;;1.6;0.9;;;;;;;25.22;53.66504;949.2795;;;;
2019/08/08 02:32:42;;;;;;;2.7;0.9;;;;;;;25.21;53.66309;949.2335;;;;
2019/08/08 02:35:07;;;;;;;1.3;1;;;;;;;25.22;53.61621;949.2993;;;;
2019/08/08 02:37:32;;;;;;;1.5;1;;;;;;;25.21;53.58008;949.2997;;;;
2019/08/08 02:39:57;;;;;;;1.5;0.9;;;;;;;25.21;53.63867;949.3422;;;;
2019/08/08 02:42:23;;;;;;;1.2;0.9;;;;;;;25.21;53.62695;949.3446;;;;
2019/08/08 02:44:48;;;;;;;2;0.8;;;;;;;25.2;53.59082;949.3423;;;;
2019/08/08 02:47:13;;;;;;;1.4;0.9;;;;;;;25.2;53.53223;949.3434;;;;
2019/08/08 02:49:38;;;;;;;1.4;1;;;;;;;25.21;53.49609;949.2769;;;;
2019/08/08 02:52:03;;;;;;;1.5;1;;;;;;;25.2;53.48438;949.2841;;;;
2019/08/08 02:54:28;;;;;;;1;0.9;;;;;;;25.2;53.43555;949.2581;;;;
2019/08/08 02:56:53;;;;;;;1.6;0.9;;;;;;;25.2;53.41309;949.3134;;;;
2019/08/08 02:59:18;;;;;;;3.3;0.9;;;;;;;25.19;53.41113;949.2134;;;;
2019/08/08 03:01:43;;;;;;;2.1;1;;;;;;;25.2;53.37695;949.2269;;;;
2019/08/08 03:04:09;;;;;;;2.5;0.9;;;;;;;25.19;53.39941;949.226;;;;
2019/08/08 03:06:34;;;;;;;1.6;0.9;;;;;;;25.19;53.33984;949.2233;;;;
2019/08/08 03:08:59;;;;;;;2;0.9;;;;;;;25.19;53.35156;949.2302;;;;
2019/08/08 03:11:24;;;;;;;0.9;0.8;;;;;;;25.18;53.37402;949.2004;;;;
2019/08/08 03:13:49;;;;;;;1.9;0.9;;;;;;;25.19;53.29199;949.1867;;;;
2019/08/08 03:16:14;;;;;;;1.8;0.9;;;;;;;25.19;53.28027;949.2008;;;;
2019/08/08 03:18:39;;;;;;;1.4;0.9;;;;;;;25.18;53.2793;949.2222;;;;
2019/08/08 03:21:05;;;;;;;1.8;1;;;;;;;25.18;53.25488;949.2222;;;;
2019/08/08 03:23:30;;;;;;;1;0.9;;;;;;;25.18;53.23145;949.2489;;;;
2019/08/08 03:25:55;;;;;;;1.7;1;;;;;;;25.17;53.23047;949.2751;;;;
2019/08/08 03:28:20;;;;;;;3.4;1.1;;;;;;;25.17;53.23145;949.274;;;;
2019/08/08 03:30:45;;;;;;;2.6;1;;;;;;;25.16;53.18164;949.257;;;;
2019/08/08 03:33:11;;;;;;;5.3;1.1;;;;;;;25.17;53.13477;949.2478;;;;
2019/08/08 03:35:36;;;;;;;3.2;1.1;;;;;;;25.16;53.07324;949.2311;;;;
2019/08/08 03:38:01;;;;;;;2.7;1.2;;;;;;;25.16;53.03906;949.2496;;;;
2019/08/08 03:40:26;;;;;;;3.9;1.1;;;;;;;25.16;53.03906;949.2463;;;;
2019/08/08 03:42:51;;;;;;;3.3;1.1;;;;;;;25.15;52.99023;949.2856;;;;
2019/08/08 03:45:17;;;;;;;2.6;1;;;;;;;25.15;52.9541;949.2692;;;;
2019/08/08 03:47:42;;;;;;;3.5;1.2;;;;;;;25.14;52.98828;949.2781;;;;
2019/08/08 03:50:07;;;;;;;2.9;0.9;;;;;;;25.14;52.96387;949.3253;;;;
2019/08/08 03:52:32;;;;;;;2.8;1;;;;;;;25.15;52.87109;949.3002;;;;
2019/08/08 03:54:57;;;;;;;5.3;1.2;;;;;;;25.14;52.84668;949.3292;;;;
2019/08/08 03:57:22;;;;;;;5.9;1.2;;;;;;;25.14;52.83496;949.3978;;;;
2019/08/08 03:59:47;;;;;;;7.5;1.3;;;;;;;25.14;52.79785;949.3934;;;;
2019/08/08 04:02:27;;;;;;;3.9;1;;;;;;;25.14;52.77441;949.4358;;;;
2019/08/08 04:04:52;;;;;;;3.6;1.4;;;;;;;25.15;52.74023;949.4821;;;;
2019/08/08 04:07:17;;;;;;;4;1.2;;;;;;;25.14;52.75098;949.4966;;;;
2019/08/08 04:09:42;;;;;;;5.7;1.5;;;;;;;25.14;52.72656;949.55;;;;
2019/08/08 04:12:08;;;;;;;3.6;1.5;;;;;;;25.14;52.69141;949.655;;;;
2019/08/08 04:14:33;;;;;;;4.2;1.4;;;;;;;25.13;52.71387;949.6731;;;;
2019/08/08 04:16:58;;;;;;;6.6;1.7;;;;;;;25.13;52.66602;949.7271;;;;
2019/08/08 04:19:23;;;;;;;5.4;1.7;;;;;;;25.13;52.6416;949.7667;;;;
2019/08/08 04:21:48;;;;;;;4.2;1.6;;;;;;;25.12;52.61719;949.7668;;;;
2019/08/08 04:24:13;;;;;;;3.4;1.6;;;;;;;25.12;52.55859;949.7896;;;;
2019/08/08 04:26:38;;;;;;;2.9;1.5;;;;;;;25.12;52.54688;949.8374;;;;
2019/08/08 04:29:08;;;;;;;4.1;1.6;;;;;;;25.12;52.50977;949.818;;;;
2019/08/08 04:31:34;;;;;;;3.6;1.6;;;;;;;25.1;52.51953;949.8641;;;;
2019/08/08 04:33:53;;;;;;;3.1;1.5;;;;;;;25.1;52.47266;949.8538;;;;
2019/08/08 04:36:18;;;;;;;3.5;1.5;;;;;;;25.11;52.44922;949.9044;;;;
2019/08/08 04:38:43;;;;;;;2.3;1.4;;;;;;;25.1;52.44824;949.9224;;;;
2019/08/08 04:41:09;;;;;;;2.1;1.4;;;;;;;25.1;52.41309;949.9171;;;;
2019/08/08 04:43:34;;;;;;;2.6;1.5;;;;;;;25.1;52.41309;949.9105;;;;
2019/08/08 04:45:59;;;;;;;2.5;1.4;;;;;;;25.11;52.38965;949.9484;;;;
2019/08/08 04:48:24;;;;;;;3.5;1.3;;;;;;;25.1;52.38867;949.9905;;;;
2019/08/08 04:50:49;;;;;;;1.4;1.2;;;;;;;25.11;52.36621;949.9886;;;;
2019/08/08 04:53:14;;;;;;;2.4;1.3;;;;;;;25.12;52.36719;949.9372;;;;
2019/08/08 04:55:39;;;;;;;3.7;1.3;;;;;;;25.13;52.35645;949.9294;;;;
2019/08/08 04:58:04;;;;;;;7.2;1.6;;;;;;;25.13;52.39258;949.8233;;;;
2019/08/08 05:00:29;;;;;;;6;1.5;;;;;;;25.13;52.41602;949.9163;;;;
2019/08/08 05:02:54;;;;;;;7.8;1.6;;;;;;;25.13;52.43945;949.8364;;;;
2019/08/08 05:05:19;;;;;;;9.4;1.8;;;;;;;25.12;52.46289;949.8147;;;;
2019/08/08 05:07:45;;;;;;;11.6;2;;;;;;;25.12;52.49902;949.832;;;;
2019/08/08 05:10:10;;;;;;;14.9;2.3;;;;;;;25.11;52.56836;949.8005;;;;
2019/08/08 05:12:35;;;;;;;13.2;1.9;;;;;;;25.12;52.55859;949.8351;;;;
2019/08/08 05:15:00;;;;;;;13.5;2;;;;;;;25.12;52.62988;949.9224;;;;
2019/08/08 05:17:25;;;;;;;11.2;2;;;;;;;25.12;52.67773;949.938;;;;
2019/08/08 05:19:50;;;;;;;15.4;2.3;;;;;;;25.14;52.71484;949.8897;;;;
2019/08/08 05:22:15;;;;;;;16.9;2.2;;;;;;;25.13;52.71387;949.851;;;;
2019/08/08 05:24:40;;;;;;;14.5;2.3;;;;;;;25.13;52.71387;949.8998;;;;
2019/08/08 05:27:05;;;;;;;20.7;2.9;;;;;;;25.13;52.79688;949.9152;;;;
2019/08/08 05:29:30;;;;;;;15.2;2.3;;;;;;;25.14;52.88086;949.8847;;;;
2019/08/08 05:31:56;;;;;;;24.8;2.8;;;;;;;25.14;52.94141;949.9545;;;;
2019/08/08 05:34:21;;;;;;;19.5;2.7;;;;;;;25.14;53.03711;949.9504;;;;
2019/08/08 05:36:46;;;;;;;22;3.1;;;;;;;25.14;53.02441;949.8917;;;;
2019/08/08 05:39:11;;;;;;;15.3;2.4;;;;;;;25.14;53.12012;949.8998;;;;
2019/08/08 05:41:36;;;;;;;14.7;2.5;;;;;;;25.14;53.25098;949.9218;;;;
2019/08/08 05:44:01;;;;;;;14.2;2.4;;;;;;;25.13;53.32031;949.9309;;;;
2019/08/08 05:46:26;;;;;;;12.2;2.4;;;;;;;25.13;53.41504;949.8934;;;;
2019/08/08 05:48:51;;;;;;;8.2;2.2;;;;;;;25.13;53.51074;949.8411;;;;
2019/08/08 05:51:16;;;;;;;14.4;2.5;;;;;;;25.12;53.58203;949.8369;;;;
2019/08/08 05:53:42;;;;;;;13.8;2.4;;;;;;;25.13;53.68848;949.796;;;;
2019/08/08 05:56:07;;;;;;;11.4;2.7;;;;;;;25.11;53.77051;949.7193;;;;
2019/08/08 05:58:32;;;;;;;13.9;2.5;;;;;;;25.12;53.90234;949.6923;;;;
2019/08/08 06:00:57;;;;;;;11.1;2.5;;;;;;;25.12;53.91504;949.6856;;;;
2019/08/08 06:03:22;;;;;;;11.7;2.4;;;;;;;25.13;53.92676;949.7187;;;;
2019/08/08 06:05:48;;;;;;;9;2.4;;;;;;;25.15;54.01367;949.7213;;;;
2019/08/08 06:08:13;;;;;;;4.8;1.9;;;;;;;25.16;54.04883;949.7519;;;;
2019/08/08 06:10:38;;;;;;;7.8;2.3;;;;;;;25.18;54.09961;949.7866;;;;
2019/08/08 06:13:03;;;;;;;9.6;2.6;;;;;;;25.19;54.10059;949.8077;;;;
2019/08/08 06:15:28;;;;;;;10.2;2.4;;;;;;;25.2;54.11523;949.7875;;;;
2019/08/08 06:17:54;;;;;;;6.1;2.5;;;;;;;25.22;54.06934;949.7438;;;;
2019/08/08 06:20:19;;;;;;;6.2;2.3;;;;;;;25.23;54.05762;949.7477;;;;
2019/08/08 06:22:44;;;;;;;7.6;2.2;;;;;;;25.26;53.8584;949.7644;;;;
2019/08/08 06:25:09;;;;;;;5.7;2.2;;;;;;;25.29;53.7793;949.7853;;;;
2019/08/08 06:27:34;;;;;;;6.1;2.1;;;;;;;25.28;53.77832;949.842;;;;
2019/08/08 06:29:59;;;;;;;5.4;2.1;;;;;;;25.31;53.85352;949.8984;;;;
2019/08/08 06:32:24;;;;;;;6.1;2;;;;;;;25.33;53.92773;949.881;;;;
2019/08/08 06:34:49;;;;;;;10.8;2.3;;;;;;;25.33;53.97559;949.8549;;;;
2019/08/08 06:37:15;;;;;;;6.7;2.1;;;;;;;25.35;53.97754;949.8499;;;;
2019/08/08 06:39:40;;;;;;;7.8;2.2;;;;;;;25.37;53.99316;949.8878;;;;
2019/08/08 06:42:05;;;;;;;3.6;2;;;;;;;25.36;54.0498;949.8689;;;;
2019/08/08 06:44:30;;;;;;;4.2;2.1;;;;;;;25.39;54.0293;949.8801;;;;
2019/08/08 06:46:55;;;;;;;8.8;2.3;;;;;;;25.42;54.0332;949.9199;;;;
2019/08/08 06:49:20;;;;;;;8.4;2.3;;;;;;;25.43;53.98633;949.9455;;;;
2019/08/08 06:51:45;;;;;;;9.1;2.8;;;;;;;25.44;53.98828;949.959;;;;
2019/08/08 06:54:10;;;;;;;19.6;4;;;;;;;25.46;54.00391;949.9807;;;;
2019/08/08 06:56:35;;;;;;;19.1;4;;;;;;;25.47;54.01563;949.9426;;;;
2019/08/08 06:59:01;;;;;;;29;4.8;;;;;;;25.49;53.9707;949.9844;;;;
2019/08/08 07:01:26;;;;;;;21.4;4.7;;;;;;;25.5;53.92383;949.9418;;;;
2019/08/08 07:03:51;;;;;;;24.6;4.8;;;;;;;25.5;53.93652;949.907;;;;
2019/08/08 07:06:16;;;;;;;30.4;5.3;;;;;;;25.52;53.87891;950.0109;;;;
2019/08/08 07:08:41;;;;;;;40.9;6.1;;;;;;;25.52;54.02246;950.014;;;;
2019/08/08 07:11:06;;;;;;;34.6;5.7;;;;;;;25.54;54.10742;950.0064;;;;
2019/08/08 07:13:31;;;;;;;50.7;6.8;;;;;;;25.61;53.88965;950.007;;;;
2019/08/08 07:15:56;;;;;;;38.5;6.6;;;;;;;25.66;54.26563;950.0245;;;;
2019/08/08 07:18:22;;;;;;;31.4;6;;;;;;;25.68;53.82715;949.9764;;;;
2019/08/08 07:20:47;;;;;;;28.5;5.7;;;;;;;25.74;53.47656;949.9752;;;;
2019/08/08 07:23:12;;;;;;;27.7;5.1;;;;;;;25.83;53.37988;950.0159;;;;
2019/08/08 07:25:37;;;;;;;19.2;3.9;;;;;;;25.86;53.88379;950.1033;;;;
2019/08/08 07:28:02;;;;;;;14.9;3.7;;;;;;;25.87;53.44434;950.0761;;;;
2019/08/08 07:30:27;;;;;;;17.2;3.7;;;;;;;25.92;52.89063;950.0009;;;;
2019/08/08 07:32:52;;;;;;;16.4;3.5;;;;;;;25.97;53.52832;950.0502;;;;
2019/08/08 07:35:17;;;;;;;13.3;3.7;;;;;;;26.04;52.82129;950.0158;;;;
2019/08/08 07:37:43;;;;;;;14;3;;;;;;;26.05;52.32129;949.9744;;;;
